Time;durP1;ratioP1;P1;durP2;ratioP2;P2;SDS_P1;SDS_P2;PMS_P1;PMS_P2;Temp;Humidity;BMP_temperature;BMP_pressure;BME280_temperature;BME280_humidity;BME280_pressure;Samples;Min_cycle;Max_cycle;Signal;HPM_P1;HPM_P2
2021/12/08 00:02:26;;;;;;;15.95;8.55;;;;;;;;;;6045467;23;20050;-93
2021/12/08 00:04:52;;;;;;;21.85;8.18;;;;;;;;;;6045312;23;20069;-94
2021/12/08 00:07:18;;;;;;;18.92;7.95;;;;;;;;;;6045920;23;20085;-94
2021/12/08 00:10:00;;;;;;;17.13;8.57;;;;;;;;;;6045378;23;20022;-92
2021/12/08 00:15:11;;;;;;;15.40;8.20;;;;;;;;;;6069082;23;20022;-93
2021/12/08 00:17:37;;;;;;;20.52;8.95;;;;;;;;;;6093418;23;20455;-94
2021/12/08 00:20:04;;;;;;;24.10;8.55;;;;;;;;;;6093100;23;20018;-93
2021/12/08 00:22:30;;;;;;;19.77;8.60;;;;;;;;;;6045385;23;20022;-92
2021/12/08 00:24:56;;;;;;;19.98;8.70;;;;;;;;;;6045103;23;20471;-93
2021/12/08 00:27:22;;;;;;;22.80;8.38;;;;;;;;;;6093578;23;20083;-94
2021/12/08 00:29:48;;;;;;;19.50;9.13;;;;;;;;;;6044778;23;20469;-92
2021/12/08 00:32:14;;;;;;;21.77;8.57;;;;;;;;;;6045338;23;20018;-93
2021/12/08 00:34:40;;;;;;;21.92;9.43;;;;;;;;;;6045052;23;20022;-93
2021/12/08 00:37:07;;;;;;;18.15;8.73;;;;;;;;;;6093353;23;20400;-94
2021/12/08 00:39:33;;;;;;;18.67;8.65;;;;;;;;;;6045154;23;20023;-93
2021/12/08 00:41:59;;;;;;;23.58;9.75;;;;;;;;;;6044983;23;20019;-93
2021/12/08 00:44:25;;;;;;;19.17;8.88;;;;;;;;;;6044827;23;20061;-94
2021/12/08 00:46:51;;;;;;;19.13;8.75;;;;;;;;;;6045074;23;20386;-95
2021/12/08 00:49:17;;;;;;;19.17;8.85;;;;;;;;;;6045039;23;20026;-94
2021/12/08 00:51:44;;;;;;;18.40;8.52;;;;;;;;;;6045214;23;20783;-95
2021/12/08 00:54:10;;;;;;;22.27;8.95;;;;;;;;;;6092995;23;20018;-94
2021/12/08 00:56:36;;;;;;;17.58;9.00;;;;;;;;;;6093145;23;20484;-94
2021/12/08 00:59:03;;;;;;;19.05;8.15;;;;;;;;;;6092124;23;20030;-95
2021/12/08 01:01:29;;;;;;;17.88;8.52;;;;;;;;;;6092936;23;20018;-94
2021/12/08 01:03:55;;;;;;;20.88;8.93;;;;;;;;;;6044836;23;20015;-94
2021/12/08 01:06:21;;;;;;;16.38;9.13;;;;;;;;;;6045353;23;20336;-93
2021/12/08 01:08:47;;;;;;;16.02;9.77;;;;;;;;;;6044562;23;20029;-94
2021/12/08 01:11:17;;;;;;;22.70;9.85;;;;;;;;;;6045105;23;20042;-94
2021/12/08 01:13:43;;;;;;;20.10;9.82;;;;;;;;;;6044604;23;20042;-93
2021/12/08 01:16:09;;;;;;;21.40;9.63;;;;;;;;;;6092747;23;20019;-95
2021/12/08 01:18:35;;;;;;;19.95;10.18;;;;;;;;;;6045105;23;20019;-95
2021/12/08 01:21:06;;;;;;;22.67;9.27;;;;;;;;;;6044892;23;20026;-95
2021/12/08 01:23:33;;;;;;;21.17;9.27;;;;;;;;;;6045359;23;20049;-96
2021/12/08 01:25:59;;;;;;;19.48;9.80;;;;;;;;;;6044496;23;20553;-94
2021/12/08 01:28:25;;;;;;;11.93;7.80;;;;;;;;;;6092318;23;20022;-95
2021/12/08 01:30:52;;;;;;;15.07;9.00;;;;;;;;;;6044874;23;20098;-94
2021/12/08 01:33:19;;;;;;;16.73;9.20;;;;;;;;;;6045202;23;20094;-95
2021/12/08 01:35:45;;;;;;;19.00;8.98;;;;;;;;;;6092547;23;20384;-94
2021/12/08 01:38:11;;;;;;;19.25;8.68;;;;;;;;;;6045136;23;20034;-94
2021/12/08 01:40:37;;;;;;;19.90;9.27;;;;;;;;;;6045043;23;20451;-95
2021/12/08 01:43:04;;;;;;;16.73;9.30;;;;;;;;;;6044193;23;20025;-94
2021/12/08 01:48:17;;;;;;;13.57;8.90;;;;;;;;;;6068358;23;20073;-94
2021/12/08 01:50:44;;;;;;;19.90;9.55;;;;;;;;;;6044566;23;20018;-94
2021/12/08 01:53:10;;;;;;;13.95;8.70;;;;;;;;;;6044476;23;20021;-94
2021/12/08 01:55:37;;;;;;;13.68;8.43;;;;;;;;;;6044255;23;20019;-96
2021/12/08 01:58:04;;;;;;;16.23;9.45;;;;;;;;;;6043838;23;20022;-94
2021/12/08 02:00:32;;;;;;;13.55;8.50;;;;;;;;;;6044533;23;20018;-96
2021/12/08 02:02:58;;;;;;;21.55;9.90;;;;;;;;;;6091949;23;20021;-94
2021/12/08 02:05:24;;;;;;;16.70;9.57;;;;;;;;;;6044573;23;20022;-94
2021/12/08 02:07:51;;;;;;;16.85;9.23;;;;;;;;;;6044063;23;20097;-94
2021/12/08 02:10:17;;;;;;;15.73;8.95;;;;;;;;;;6043883;23;20022;-94
2021/12/08 02:12:43;;;;;;;16.33;9.73;;;;;;;;;;6043857;23;20022;-94
2021/12/08 02:15:11;;;;;;;17.95;9.80;;;;;;;;;;6044379;23;20022;-94
2021/12/08 02:17:38;;;;;;;19.75;10.00;;;;;;;;;;6044626;23;20026;-94
2021/12/08 02:20:05;;;;;;;20.77;10.52;;;;;;;;;;6043961;23;20014;-94
2021/12/08 02:22:31;;;;;;;16.75;10.88;;;;;;;;;;6044537;23;20362;-95
2021/12/08 02:24:57;;;;;;;18.00;10.30;;;;;;;;;;6044063;23;20021;-95
2021/12/08 02:27:23;;;;;;;20.83;9.52;;;;;;;;;;6043698;23;20458;-94
2021/12/08 02:29:56;;;;;;;20.15;10.07;;;;;;;;;;6044159;23;20469;-96
2021/12/08 02:48:33;;;;;;;19.73;10.32;;;;;;;;;;6068079;23;20022;-94
2021/12/08 02:50:59;;;;;;;15.80;9.15;;;;;;;;;;6091738;23;20025;-95
2021/12/08 02:53:25;;;;;;;18.10;9.35;;;;;;;;;;6044161;23;20018;-95
2021/12/08 02:55:52;;;;;;;15.63;9.85;;;;;;;;;;6043779;23;20062;-94
2021/12/08 02:58:18;;;;;;;19.42;10.60;;;;;;;;;;6092056;23;20026;-96
2021/12/08 03:00:46;;;;;;;18.15;11.48;;;;;;;;;;6044007;23;20114;-94
2021/12/08 03:03:12;;;;;;;19.27;10.15;;;;;;;;;;6044084;23;20362;-95
2021/12/08 03:05:38;;;;;;;19.67;11.63;;;;;;;;;;6091793;23;20089;-96
2021/12/08 03:08:05;;;;;;;18.85;12.18;;;;;;;;;;6043650;23;20065;-96
2021/12/08 03:10:33;;;;;;;21.63;10.75;;;;;;;;;;6043578;23;20018;-94
2021/12/08 03:13:00;;;;;;;21.83;11.25;;;;;;;;;;6043734;23;20022;-94
2021/12/08 03:15:26;;;;;;;17.63;12.00;;;;;;;;;;6044067;23;20037;-93
2021/12/08 03:17:52;;;;;;;19.63;11.55;;;;;;;;;;6043754;23;20026;-96
2021/12/08 03:20:23;;;;;;;24.55;12.63;;;;;;;;;;6044181;23;20029;-96
2021/12/08 03:22:51;;;;;;;25.52;13.38;;;;;;;;;;6068030;23;20026;-95
2021/12/08 03:25:20;;;;;;;22.90;12.45;;;;;;;;;;6043102;23;20022;-95
2021/12/08 03:28:03;;;;;;;22.23;12.63;;;;;;;;;;6043503;23;20015;-95
2021/12/08 03:30:35;;;;;;;21.73;12.75;;;;;;;;;;6044259;23;20018;-94
2021/12/08 03:33:01;;;;;;;23.98;12.75;;;;;;;;;;6044019;23;20455;-95
2021/12/08 03:35:27;;;;;;;23.45;12.88;;;;;;;;;;6043739;23;20097;-94
2021/12/08 03:37:53;;;;;;;26.13;13.93;;;;;;;;;;6043455;23;20089;-95
2021/12/08 03:40:21;;;;;;;24.13;14.07;;;;;;;;;;6043782;23;20053;-96
2021/12/08 03:42:48;;;;;;;34.80;15.05;;;;;;;;;;6092094;23;20019;-95
2021/12/08 03:45:26;;;;;;;24.73;16.08;;;;;;;;;;6092233;23;20022;-94
2021/12/08 03:47:59;;;;;;;27.17;15.90;;;;;;;;;;6043786;23;20050;-96
2021/12/08 03:50:26;;;;;;;24.83;15.50;;;;;;;;;;6067941;23;20054;-95
2021/12/08 03:52:52;;;;;;;29.13;16.83;;;;;;;;;;6043446;23;20018;-94
2021/12/08 03:55:18;;;;;;;27.92;15.88;;;;;;;;;;6043539;23;20022;-94
2021/12/08 03:57:44;;;;;;;26.90;17.58;;;;;;;;;;6043785;23;20089;-95
2021/12/08 04:00:12;;;;;;;24.13;17.00;;;;;;;;;;6043646;23;20018;-94
2021/12/08 04:02:38;;;;;;;29.58;18.40;;;;;;;;;;6091929;23;20026;-94
2021/12/08 04:05:05;;;;;;;29.08;19.65;;;;;;;;;;6043762;23;20462;-93
2021/12/08 04:07:31;;;;;;;32.28;16.98;;;;;;;;;;6043564;23;20541;-95
2021/12/08 04:09:58;;;;;;;30.85;17.00;;;;;;;;;;6043581;23;20498;-94
2021/12/08 04:12:24;;;;;;;26.50;16.52;;;;;;;;;;6045695;23;20046;-95
2021/12/08 04:14:55;;;;;;;28.75;17.08;;;;;;;;;;6045470;23;20462;-94
2021/12/08 04:17:29;;;;;;;30.60;17.35;;;;;;;;;;6045506;23;20019;-95
2021/12/08 04:19:56;;;;;;;31.05;16.45;;;;;;;;;;6045279;23;20018;-95
2021/12/08 04:22:24;;;;;;;27.33;17.20;;;;;;;;;;6045085;23;20019;-95
2021/12/08 04:24:51;;;;;;;32.10;17.65;;;;;;;;;;6044999;23;20054;-94
2021/12/08 04:27:19;;;;;;;29.98;16.42;;;;;;;;;;6045642;23;20085;-95
2021/12/08 04:29:45;;;;;;;30.75;16.60;;;;;;;;;;6045246;23;20113;-96
2021/12/08 04:32:14;;;;;;;27.05;17.08;;;;;;;;;;6045249;23;20018;-95
2021/12/08 04:34:42;;;;;;;24.45;17.23;;;;;;;;;;6045015;23;20028;-96
2021/12/08 04:37:16;;;;;;;30.42;15.93;;;;;;;;;;6069061;23;20026;-95
2021/12/08 04:42:17;;;;;;;27.92;16.63;;;;;;;;;;6093386;23;20081;-94
2021/12/08 04:44:50;;;;;;;29.50;17.80;;;;;;;;;;6044798;23;20025;-95
2021/12/08 04:47:32;;;;;;;27.23;16.90;;;;;;;;;;6069496;23;20018;-94
2021/12/08 04:52:56;;;;;;;24.23;15.10;;;;;;;;;;6092214;23;20022;-95
2021/12/08 05:03:45;;;;;;;25.70;14.68;;;;;;;;;;6093219;23;20033;-95
2021/12/08 05:06:36;;;;;;;24.42;14.75;;;;;;;;;;6044436;23;20025;-94
2021/12/08 05:09:05;;;;;;;28.38;14.57;;;;;;;;;;6068501;23;20018;-94
2021/12/08 05:11:34;;;;;;;24.67;15.45;;;;;;;;;;6045114;23;20059;-94
2021/12/08 05:14:09;;;;;;;24.40;15.15;;;;;;;;;;6044700;23;20030;-93
2021/12/08 05:16:36;;;;;;;22.88;14.77;;;;;;;;;;6045145;23;20014;-93
2021/12/08 05:19:04;;;;;;;26.45;14.93;;;;;;;;;;6044842;23;20033;-94
2021/12/08 05:21:36;;;;;;;23.08;14.40;;;;;;;;;;6092143;23;20407;-93
2021/12/08 05:24:08;;;;;;;21.10;13.93;;;;;;;;;;6044893;23;20024;-93
2021/12/08 05:26:53;;;;;;;25.63;14.57;;;;;;;;;;6044986;23;20022;-94
2021/12/08 05:29:24;;;;;;;29.33;15.20;;;;;;;;;;6045015;23;20018;-95
2021/12/08 05:31:51;;;;;;;25.58;14.32;;;;;;;;;;6044607;23;20081;-94
2021/12/08 05:34:17;;;;;;;24.83;13.48;;;;;;;;;;6092354;23;20049;-94
2021/12/08 05:36:44;;;;;;;25.00;14.25;;;;;;;;;;6068448;23;20026;-94
2021/12/08 05:39:12;;;;;;;22.95;14.15;;;;;;;;;;6044803;23;20022;-94
2021/12/08 05:41:39;;;;;;;23.23;14.02;;;;;;;;;;6092676;23;20026;-94
2021/12/08 05:44:06;;;;;;;22.95;13.13;;;;;;;;;;6044512;23;20014;-94
2021/12/08 05:46:34;;;;;;;26.10;13.18;;;;;;;;;;6044590;23;20026;-93
2021/12/08 05:49:01;;;;;;;20.27;13.43;;;;;;;;;;6091871;23;20030;-95
2021/12/08 05:51:29;;;;;;;24.48;14.13;;;;;;;;;;6044604;23;20018;-95
2021/12/08 05:53:58;;;;;;;22.08;12.00;;;;;;;;;;6044604;23;20337;-93
2021/12/08 05:56:24;;;;;;;27.48;12.27;;;;;;;;;;6068450;23;20022;-94
2021/12/08 05:58:52;;;;;;;25.55;11.85;;;;;;;;;;6044265;23;20014;-93
2021/12/08 06:01:25;;;;;;;20.75;11.75;;;;;;;;;;6092477;23;20022;-95
2021/12/08 06:03:51;;;;;;;22.48;12.30;;;;;;;;;;6091830;23;20014;-93
2021/12/08 06:06:18;;;;;;;23.55;12.30;;;;;;;;;;6044729;23;20101;-94
2021/12/08 06:08:44;;;;;;;24.08;12.05;;;;;;;;;;6044152;23;20025;-94
2021/12/08 06:11:11;;;;;;;20.20;11.40;;;;;;;;;;6044587;23;20014;-93
2021/12/08 06:13:38;;;;;;;17.05;10.98;;;;;;;;;;6044418;23;20089;-95
2021/12/08 06:16:05;;;;;;;20.02;10.82;;;;;;;;;;6044228;23;20022;-93
2021/12/08 06:18:37;;;;;;;19.27;11.20;;;;;;;;;;6043924;23;20466;-94
2021/12/08 06:21:05;;;;;;;16.75;9.90;;;;;;;;;;6044265;23;20478;-93
2021/12/08 06:23:32;;;;;;;21.30;11.23;;;;;;;;;;6044516;23;20461;-94
2021/12/08 06:25:59;;;;;;;19.38;10.23;;;;;;;;;;6044040;23;20026;-93
2021/12/08 06:28:25;;;;;;;15.52;9.90;;;;;;;;;;6044403;23;20029;-94
2021/12/08 06:30:51;;;;;;;18.83;10.00;;;;;;;;;;6043892;23;20053;-94
2021/12/08 06:33:20;;;;;;;21.25;9.90;;;;;;;;;;6043804;23;20026;-93
2021/12/08 06:35:48;;;;;;;23.75;10.32;;;;;;;;;;6043732;23;20018;-94
2021/12/08 06:38:14;;;;;;;19.75;9.80;;;;;;;;;;6044417;23;20022;-94
2021/12/08 06:40:44;;;;;;;18.30;9.55;;;;;;;;;;6044398;23;20350;-95
2021/12/08 06:43:11;;;;;;;18.17;8.93;;;;;;;;;;6044325;23;20029;-93
2021/12/08 06:45:39;;;;;;;19.20;8.48;;;;;;;;;;6091943;23;20078;-94
2021/12/08 06:48:07;;;;;;;23.27;9.48;;;;;;;;;;6043028;23;20024;-94
2021/12/08 06:50:39;;;;;;;18.58;9.07;;;;;;;;;;6091934;23;20019;-96
2021/12/08 06:53:06;;;;;;;14.00;7.30;;;;;;;;;;6044578;23;20046;-96
2021/12/08 06:55:36;;;;;;;14.88;7.90;;;;;;;;;;6048030;23;20019;-96
2021/12/08 06:58:11;;;;;;;11.85;7.95;;;;;;;;;;6075802;23;20022;-96
2021/12/08 07:03:48;;;;;;;14.75;7.20;;;;;;;;;;6069203;23;20022;-95
2021/12/08 07:09:07;;;;;;;16.55;6.82;;;;;;;;;;6072258;23;20026;-95
2021/12/08 07:11:34;;;;;;;12.80;7.00;;;;;;;;;;6065475;23;20049;-96
2021/12/08 07:14:06;;;;;;;15.77;6.43;;;;;;;;;;6084325;23;20022;-95
2021/12/08 07:16:37;;;;;;;17.98;6.00;;;;;;;;;;6058217;23;20018;-95
2021/12/08 07:19:35;;;;;;;13.73;6.40;;;;;;;;;;6098636;23;20042;-96
2021/12/08 07:22:52;;;;;;;14.50;6.28;;;;;;;;;;6124582;23;20022;-96
2021/12/08 07:25:28;;;;;;;10.82;5.40;;;;;;;;;;6069667;23;20026;-95
2021/12/08 07:27:54;;;;;;;12.15;5.88;;;;;;;;;;6053384;23;20026;-96
2021/12/08 07:30:25;;;;;;;12.38;5.80;;;;;;;;;;6045858;23;20014;-95
2021/12/08 07:32:52;;;;;;;14.32;6.25;;;;;;;;;;6075321;23;20042;-96
2021/12/08 07:35:29;;;;;;;17.35;6.25;;;;;;;;;;6051333;23;20541;-95
2021/12/08 07:37:56;;;;;;;11.85;5.63;;;;;;;;;;6076167;23;20029;-96
2021/12/08 07:40:26;;;;;;;15.93;6.20;;;;;;;;;;6113508;23;20023;-96
2021/12/08 07:42:55;;;;;;;13.13;5.75;;;;;;;;;;6059432;23;20003;-96
2021/12/08 07:45:23;;;;;;;13.43;6.03;;;;;;;;;;6098189;23;20026;-96
2021/12/08 07:47:50;;;;;;;14.50;5.90;;;;;;;;;;6065501;23;20018;-96
2021/12/08 07:50:16;;;;;;;10.43;5.35;;;;;;;;;;6075641;23;20022;-95
2021/12/08 07:52:43;;;;;;;17.52;5.60;;;;;;;;;;6123628;23;20005;-96
2021/12/08 07:55:15;;;;;;;11.70;5.57;;;;;;;;;;6121756;23;20075;-96
2021/12/08 07:57:42;;;;;;;14.48;5.05;;;;;;;;;;6072626;23;20018;-96
2021/12/08 08:00:23;;;;;;;11.70;5.22;;;;;;;;;;6073289;23;20469;-96
2021/12/08 08:02:51;;;;;;;11.10;4.88;;;;;;;;;;6116686;23;20010;-96
2021/12/08 08:05:18;;;;;;;14.98;5.20;;;;;;;;;;6068275;23;20359;-96
2021/12/08 08:07:44;;;;;;;12.93;4.65;;;;;;;;;;6116191;23;20022;-96
2021/12/08 08:10:14;;;;;;;16.67;5.22;;;;;;;;;;6106117;23;20026;-96
2021/12/08 08:12:41;;;;;;;100.90;12.55;;;;;;;;;;6048927;23;20066;-95
2021/12/08 08:15:20;;;;;;;13.10;4.53;;;;;;;;;;6047714;23;20077;-95
2021/12/08 08:17:49;;;;;;;14.52;4.95;;;;;;;;;;6093718;23;20351;-94
2021/12/08 08:20:18;;;;;;;13.95;4.32;;;;;;;;;;6093501;23;20018;-95
2021/12/08 08:22:44;;;;;;;12.70;4.75;;;;;;;;;;6046842;23;20466;-96
2021/12/08 08:25:12;;;;;;;12.23;4.60;;;;;;;;;;6047055;23;20019;-96
2021/12/08 08:27:39;;;;;;;12.63;4.70;;;;;;;;;;6046135;23;20029;-94
2021/12/08 08:30:08;;;;;;;11.15;4.13;;;;;;;;;;6046022;23;20312;-95
2021/12/08 08:32:36;;;;;;;14.65;4.60;;;;;;;;;;6046851;23;20022;-95
2021/12/08 08:35:09;;;;;;;11.25;4.03;;;;;;;;;;6095767;23;20478;-95
2021/12/08 08:37:35;;;;;;;5.93;4.20;;;;;;;;;;6046698;23;20025;-96
2021/12/08 08:40:03;;;;;;;12.27;4.32;;;;;;;;;;6046892;23;20101;-93
2021/12/08 08:42:33;;;;;;;15.02;4.38;;;;;;;;;;6047085;23;20359;-96
2021/12/08 08:45:04;;;;;;;19.48;3.90;;;;;;;;;;6106969;23;20011;-96
2021/12/08 08:47:32;;;;;;;12.43;3.97;;;;;;;;;;6059317;23;20018;-96
2021/12/08 08:49:59;;;;;;;15.15;4.50;;;;;;;;;;6055484;23;20030;-96
2021/12/08 08:52:31;;;;;;;19.30;4.47;;;;;;;;;;6111807;23;20018;-95
2021/12/08 08:54:59;;;;;;;13.23;4.18;;;;;;;;;;6062191;23;20050;-95
2021/12/08 08:57:33;;;;;;;10.70;4.40;;;;;;;;;;6057217;23;20324;-95
2021/12/08 09:00:02;;;;;;;17.27;4.22;;;;;;;;;;6062121;23;20019;-96
2021/12/08 09:02:37;;;;;;;9.57;3.58;;;;;;;;;;6053856;23;20359;-95
2021/12/08 09:05:05;;;;;;;15.27;3.47;;;;;;;;;;6049875;23;20029;-96
2021/12/08 09:07:34;;;;;;;12.52;3.90;;;;;;;;;;6052367;23;20486;-94
2021/12/08 09:10:03;;;;;;;16.95;4.22;;;;;;;;;;6105444;23;20429;-95
2021/12/08 09:12:35;;;;;;;9.73;4.38;;;;;;;;;;6057047;23;20469;-94
2021/12/08 09:15:04;;;;;;;13.77;4.10;;;;;;;;;;6046258;23;20022;-95
2021/12/08 09:17:39;;;;;;;13.05;4.00;;;;;;;;;;6048381;23;20030;-96
2021/12/08 09:20:25;;;;;;;17.23;4.50;;;;;;;;;;6102650;23;20034;-96
2021/12/08 09:22:57;;;;;;;12.88;4.60;;;;;;;;;;6056229;23;20022;-96
2021/12/08 09:25:35;;;;;;;15.05;4.47;;;;;;;;;;6050650;23;20019;-96
2021/12/08 09:28:05;;;;;;;13.07;4.68;;;;;;;;;;6053291;23;20101;-96
2021/12/08 09:30:35;;;;;;;15.25;4.63;;;;;;;;;;6049666;23;20015;-95
2021/12/08 09:33:06;;;;;;;15.77;4.50;;;;;;;;;;6046756;23;20077;-93
2021/12/08 09:35:38;;;;;;;14.30;4.20;;;;;;;;;;6041378;23;20026;-94
2021/12/08 09:38:10;;;;;;;14.80;4.40;;;;;;;;;;6064181;23;20083;-94
2021/12/08 09:40:47;;;;;;;16.77;4.25;;;;;;;;;;6064848;23;20018;-96
2021/12/08 09:43:16;;;;;;;16.70;4.53;;;;;;;;;;6066393;23;20050;-96
2021/12/08 09:45:45;;;;;;;15.43;4.47;;;;;;;;;;6064550;23;20015;-96
2021/12/08 09:48:12;;;;;;;11.93;4.13;;;;;;;;;;6064368;23;20325;-94
2021/12/08 09:50:38;;;;;;;14.05;4.32;;;;;;;;;;6065794;23;20594;-95
2021/12/08 09:53:05;;;;;;;13.35;4.35;;;;;;;;;;6063897;23;20093;-95
2021/12/08 09:55:32;;;;;;;17.95;5.03;;;;;;;;;;6088847;23;20098;-96
2021/12/08 09:57:58;;;;;;;12.90;4.47;;;;;;;;;;6088344;23;20065;-96
2021/12/08 10:00:26;;;;;;;16.50;5.05;;;;;;;;;;6088179;23;20078;-94
2021/12/08 10:02:57;;;;;;;16.48;4.93;;;;;;;;;;6063901;23;20049;-93
2021/12/08 10:05:25;;;;;;;15.75;4.63;;;;;;;;;;6064734;23;20073;-96
2021/12/08 10:07:51;;;;;;;14.52;4.65;;;;;;;;;;6087445;23;20459;-95
2021/12/08 10:10:18;;;;;;;14.10;4.82;;;;;;;;;;6068029;23;20023;-96
2021/12/08 10:12:44;;;;;;;15.77;5.05;;;;;;;;;;6063748;23;20455;-96
2021/12/08 10:15:11;;;;;;;16.52;5.15;;;;;;;;;;6064008;23;20094;-96
2021/12/08 10:17:37;;;;;;;18.58;5.53;;;;;;;;;;6063267;23;20633;-95
2021/12/08 10:20:06;;;;;;;14.88;4.68;;;;;;;;;;6062953;23;20022;-94
2021/12/08 10:22:32;;;;;;;10.77;4.40;;;;;;;;;;6063205;23;20019;-94
2021/12/08 10:25:18;;;;;;;12.63;4.32;;;;;;;;;;6063958;23;20037;-95
2021/12/08 10:28:03;;;;;;;13.68;4.70;;;;;;;;;;6066957;23;20018;-96
2021/12/08 10:30:29;;;;;;;19.27;4.80;;;;;;;;;;6064023;23;20019;-94
2021/12/08 10:32:55;;;;;;;16.30;4.57;;;;;;;;;;6091206;23;20455;-94
2021/12/08 10:35:43;;;;;;;16.35;5.30;;;;;;;;;;6017915;23;1123174;-95
2021/12/08 10:38:11;;;;;;;14.70;4.70;;;;;;;;;;6071152;23;20051;-96
2021/12/08 10:40:37;;;;;;;16.33;4.85;;;;;;;;;;6073224;23;20026;-96
2021/12/08 10:43:13;;;;;;;11.50;4.85;;;;;;;;;;6073274;23;20468;-96
2021/12/08 10:45:39;;;;;;;16.80;5.07;;;;;;;;;;6072132;23;20018;-95
2021/12/08 10:48:07;;;;;;;12.85;4.80;;;;;;;;;;6073532;23;20074;-95
2021/12/08 10:56:11;;;;;;;15.18;4.78;;;;;;;;;;6068735;23;20050;-96
2021/12/08 10:58:43;;;;;;;11.13;4.45;;;;;;;;;;6067723;23;20025;-96
2021/12/08 11:01:11;;;;;;;10.32;4.40;;;;;;;;;;6066286;23;20478;-95
2021/12/08 11:03:39;;;;;;;19.08;5.32;;;;;;;;;;6087885;23;20019;-94
2021/12/08 11:06:06;;;;;;;12.52;4.78;;;;;;;;;;6065957;23;20023;-96
2021/12/08 11:08:44;;;;;;;16.55;4.70;;;;;;;;;;6063754;23;20091;-95
2021/12/08 11:11:22;;;;;;;14.07;4.80;;;;;;;;;;6068114;23;20066;-95
2021/12/08 11:13:58;;;;;;;13.57;4.82;;;;;;;;;;6065869;23;20027;-95
2021/12/08 11:16:29;;;;;;;12.35;4.25;;;;;;;;;;6064332;23;20019;-92
2021/12/08 11:19:05;;;;;;;16.48;4.85;;;;;;;;;;6063142;23;20019;-95
2021/12/08 11:21:36;;;;;;;13.02;4.53;;;;;;;;;;6063140;23;20026;-94
2021/12/08 11:24:03;;;;;;;9.18;4.28;;;;;;;;;;6062736;23;20066;-96
2021/12/08 11:26:37;;;;;;;14.98;4.68;;;;;;;;;;6064107;23;20019;-93
2021/12/08 11:29:05;;;;;;;9.65;4.50;;;;;;;;;;6064532;23;20475;-94
2021/12/08 11:31:34;;;;;;;12.75;4.50;;;;;;;;;;6063894;23;20527;-95
2021/12/08 11:34:02;;;;;;;13.32;4.03;;;;;;;;;;6066031;23;20455;-96
2021/12/08 11:36:38;;;;;;;11.70;4.38;;;;;;;;;;6064952;23;20066;-96
2021/12/08 11:39:22;;;;;;;14.32;4.93;;;;;;;;;;6064736;23;20023;-95
2021/12/08 11:41:49;;;;;;;11.00;4.30;;;;;;;;;;6065400;23;20050;-96
2021/12/08 11:44:38;;;;;;;11.55;5.13;;;;;;;;;;6082833;23;20002;-95
2021/12/08 11:47:51;;;;;;;12.85;4.75;;;;;;;;;;6043655;23;20087;-96
2021/12/08 11:53:38;;;;;;;12.90;5.45;;;;;;;;;;6058659;23;20030;-96
2021/12/08 11:56:43;;;;;;;12.77;5.73;;;;;;;;;;6015639;23;20020;-96
2021/12/08 11:59:13;;;;;;;12.07;5.32;;;;;;;;;;6008048;23;20264;-94
2021/12/08 12:02:42;;;;;;;15.45;5.68;;;;;;;;;;6021358;23;20036;-96
2021/12/08 12:05:11;;;;;;;13.25;5.30;;;;;;;;;;6001215;23;20030;-96
2021/12/08 12:07:39;;;;;;;18.15;11.02;;;;;;;;;;5972868;23;20024;-96
2021/12/08 12:10:05;;;;;;;20.50;6.03;;;;;;;;;;5978613;23;20068;-96
2021/12/08 12:12:31;;;;;;;16.92;5.60;;;;;;;;;;6000583;23;20019;-96
2021/12/08 12:14:57;;;;;;;17.27;6.15;;;;;;;;;;5991836;23;20026;-96
2021/12/08 12:17:23;;;;;;;18.98;6.30;;;;;;;;;;5992854;23;20020;-96
2021/12/08 12:20:01;;;;;;;12.55;4.97;;;;;;;;;;5998079;23;20092;-96
2021/12/08 12:22:35;;;;;;;12.73;5.55;;;;;;;;;;5992508;23;20536;-96
2021/12/08 12:25:27;;;;;;;12.60;5.03;;;;;;;;;;5998494;23;20007;-96
2021/12/08 12:28:12;;;;;;;17.17;5.53;;;;;;;;;;5969194;23;20080;-96
2021/12/08 12:30:47;;;;;;;14.43;5.53;;;;;;;;;;6022172;23;20019;-94
2021/12/08 12:33:17;;;;;;;12.32;5.20;;;;;;;;;;6029161;23;20023;-96
2021/12/08 12:35:54;;;;;;;19.05;5.85;;;;;;;;;;6038056;23;20009;-89
2021/12/08 12:38:37;;;;;;;13.35;5.13;;;;;;;;;;6044655;23;20018;-92
2021/12/08 12:41:04;;;;;;;10.75;5.00;;;;;;;;;;6044397;23;20019;-85
2021/12/08 12:43:33;;;;;;;11.55;5.50;;;;;;;;;;6062228;23;20059;-94
2021/12/08 12:46:04;;;;;;;9.55;4.60;;;;;;;;;;6096873;23;20007;-90
2021/12/08 12:48:31;;;;;;;12.35;4.40;;;;;;;;;;6097019;23;20031;-92
2021/12/08 12:50:58;;;;;;;10.40;4.97;;;;;;;;;;6096008;23;20077;-92
2021/12/08 12:53:32;;;;;;;14.02;5.18;;;;;;;;;;6097372;23;20007;-93
2021/12/08 12:55:58;;;;;;;13.77;5.55;;;;;;;;;;6120971;23;20070;-92
2021/12/08 12:58:38;;;;;;;11.98;4.70;;;;;;;;;;6096544;23;20028;-87
2021/12/08 13:01:06;;;;;;;10.77;4.70;;;;;;;;;;6121501;23;20006;-82
2021/12/08 13:03:33;;;;;;;9.40;4.40;;;;;;;;;;6097246;23;20006;-93
2021/12/08 13:06:00;;;;;;;11.00;4.30;;;;;;;;;;6120764;23;20007;-88
2021/12/08 13:08:30;;;;;;;13.52;4.75;;;;;;;;;;6097201;23;20122;-89
2021/12/08 13:10:59;;;;;;;21.08;5.18;;;;;;;;;;6097000;23;20035;-92
2021/12/08 13:13:25;;;;;;;10.55;4.70;;;;;;;;;;6073013;23;20037;-90
2021/12/08 13:15:51;;;;;;;12.70;4.45;;;;;;;;;;6097161;23;20002;-87
2021/12/08 13:18:18;;;;;;;15.70;5.00;;;;;;;;;;6121269;23;20014;-82
2021/12/08 13:20:55;;;;;;;12.60;5.90;;;;;;;;;;6097223;23;20043;-96
2021/12/08 13:23:22;;;;;;;12.38;4.53;;;;;;;;;;6097311;23;20018;-82
2021/12/08 13:25:52;;;;;;;11.90;4.80;;;;;;;;;;6097390;23;20018;-81
2021/12/08 13:49:02;;;;;;;10.23;4.40;;;;;;;;;;6105640;23;19924;-96
2021/12/08 13:51:28;;;;;;;11.57;4.32;;;;;;;;;;6079866;23;20046;-96
2021/12/08 13:54:12;;;;;;;11.77;4.90;;;;;;;;;;6081219;23;20027;-96
2021/12/08 13:56:40;;;;;;;15.07;5.20;;;;;;;;;;6054407;23;20057;-96
2021/12/08 13:59:06;;;;;;;10.98;4.72;;;;;;;;;;6060848;23;20029;-95
2021/12/08 14:01:37;;;;;;;11.63;4.40;;;;;;;;;;6058183;23;20010;-95
2021/12/08 14:04:15;;;;;;;16.15;4.32;;;;;;;;;;6050845;23;20022;-95
2021/12/08 14:06:41;;;;;;;10.45;4.10;;;;;;;;;;6047684;23;20018;-95
2021/12/08 14:09:14;;;;;;;15.23;4.72;;;;;;;;;;6052911;23;20019;-95
2021/12/08 14:11:39;;;;;;;10.23;4.30;;;;;;;;;;6074318;23;20324;-95
2021/12/08 14:14:08;;;;;;;15.15;4.90;;;;;;;;;;6049140;23;20042;-95
2021/12/08 14:16:34;;;;;;;11.20;4.22;;;;;;;;;;6049973;23;20474;-95
2021/12/08 14:19:00;;;;;;;11.43;4.65;;;;;;;;;;6044475;23;20105;-94
2021/12/08 14:21:32;;;;;;;11.15;3.97;;;;;;;;;;6046364;23;20099;-94
2021/12/08 14:24:03;;;;;;;7.75;4.13;;;;;;;;;;6052508;23;20018;-95
2021/12/08 14:26:35;;;;;;;8.98;3.88;;;;;;;;;;6051559;23;20018;-95
2021/12/08 14:29:02;;;;;;;13.40;3.90;;;;;;;;;;6076991;23;20440;-95
2021/12/08 14:31:28;;;;;;;10.27;3.90;;;;;;;;;;6075891;23;20025;-95
2021/12/08 14:34:06;;;;;;;11.52;3.97;;;;;;;;;;6077439;23;20022;-94
2021/12/08 14:36:34;;;;;;;12.88;4.35;;;;;;;;;;6080612;23;20104;-95
2021/12/08 14:39:07;;;;;;;10.77;4.28;;;;;;;;;;6084369;23;20010;-96
2021/12/08 14:41:50;;;;;;;10.60;4.05;;;;;;;;;;6152385;23;20052;-96
2021/12/08 14:45:03;;;;;;;10.50;4.03;;;;;;;;;;6152913;23;20028;-96
2021/12/08 14:47:43;;;;;;;11.82;4.28;;;;;;;;;;6102058;23;20052;-96
2021/12/08 14:50:19;;;;;;;9.63;4.75;;;;;;;;;;6102250;23;20013;-95
2021/12/08 14:53:12;;;;;;;13.07;3.97;;;;;;;;;;6150912;23;20002;-96
2021/12/08 14:55:44;;;;;;;11.90;3.80;;;;;;;;;;6127118;23;20013;-96
2021/12/08 14:58:40;;;;;;;11.05;3.90;;;;;;;;;;6017031;23;20019;-96
2021/12/08 15:01:19;;;;;;;8.20;4.35;;;;;;;;;;6012316;23;20011;-96
2021/12/08 15:07:31;;;;;;;14.18;4.03;;;;;;;;;;6019399;23;20105;-95
2021/12/08 15:10:40;;;;;;;6.72;4.10;;;;;;;;;;6035942;23;20030;-96
2021/12/08 15:13:38;;;;;;;11.05;4.28;;;;;;;;;;6004111;23;20023;-96
2021/12/08 15:16:25;;;;;;;9.32;4.00;;;;;;;;;;6029947;23;20023;-95
2021/12/08 15:19:22;;;;;;;11.40;4.53;;;;;;;;;;6007030;23;20012;-95
2021/12/08 15:25:12;;;;;;;8.93;3.65;;;;;;;;;;6010783;23;20040;-96
2021/12/08 15:28:00;;;;;;;10.93;4.20;;;;;;;;;;6035054;23;20063;-96
2021/12/08 15:31:08;;;;;;;11.57;4.25;;;;;;;;;;5988104;23;20055;-96
2021/12/08 15:34:11;;;;;;;7.25;4.10;;;;;;;;;;6005436;23;20019;-96
2021/12/08 15:36:56;;;;;;;7.72;4.35;;;;;;;;;;6103198;23;20114;-96
2021/12/08 15:39:52;;;;;;;10.10;4.60;;;;;;;;;;6121216;23;20053;-96
2021/12/08 15:42:19;;;;;;;12.85;4.93;;;;;;;;;;6100542;23;20014;-95
2021/12/08 15:45:06;;;;;;;17.90;4.88;;;;;;;;;;6147985;23;20116;-95
2021/12/08 15:47:45;;;;;;;11.05;4.68;;;;;;;;;;6073862;23;20037;-96
2021/12/08 15:50:36;;;;;;;7.53;4.22;;;;;;;;;;6099635;23;20050;-96
2021/12/08 15:53:21;;;;;;;8.77;4.50;;;;;;;;;;6125802;23;20041;-95
2021/12/08 15:55:58;;;;;;;8.60;4.40;;;;;;;;;;6124577;23;20033;-96
2021/12/08 15:58:46;;;;;;;13.10;5.45;;;;;;;;;;6098726;23;20026;-96
2021/12/08 16:01:18;;;;;;;9.80;4.38;;;;;;;;;;6096910;23;20018;-96
2021/12/08 16:03:48;;;;;;;14.25;4.50;;;;;;;;;;6087873;23;20025;-96
2021/12/08 16:06:16;;;;;;;11.98;4.80;;;;;;;;;;6089928;23;20025;-95
2021/12/08 16:08:44;;;;;;;10.32;4.38;;;;;;;;;;6089157;23;20018;-96
2021/12/08 16:11:10;;;;;;;13.30;4.60;;;;;;;;;;6090958;23;20018;-95